Time;durP1;ratioP1;P1;durP2;ratioP2;P2;SDS_P1;SDS_P2;PMS_P1;PMS_P2;Temp;Humidity;BMP_temperature;BMP_pressure;BME280_temperature;BME280_humidity;BME280_pressure;Samples;Min_cycle;Max_cycle;Signal;HPM_P1;HPM_P2
2023/08/16 00:04:09;;;;;;;9.40;6.07;;;;;;;;;;10296714;28;20067;-70
2023/08/16 00:09:05;;;;;;;6.13;5.63;;;;;;;;;;10275669;22;20119;-70
2023/08/16 00:14:02;;;;;;;7.35;5.72;;;;;;;;;;10223156;28;20056;-70
2023/08/16 00:18:58;;;;;;;6.00;5.22;;;;;;;;;;10237265;28;20056;-70
2023/08/16 00:23:54;;;;;;;10.40;6.57;;;;;;;;;;10270914;28;20585;-70
2023/08/16 00:28:51;;;;;;;6.88;6.25;;;;;;;;;;10259655;28;20049;-70
2023/08/16 00:33:47;;;;;;;9.18;6.40;;;;;;;;;;10259120;28;20136;-70
2023/08/16 00:38:43;;;;;;;5.90;5.40;;;;;;;;;;10265901;28;20084;-70
2023/08/16 00:43:40;;;;;;;8.73;6.20;;;;;;;;;;10248175;28;20133;-70
2023/08/16 00:48:37;;;;;;;9.57;5.93;;;;;;;;;;10253364;28;20298;-70
2023/08/16 00:53:34;;;;;;;7.15;6.30;;;;;;;;;;10259450;28;20049;-70
2023/08/16 00:58:30;;;;;;;6.57;5.97;;;;;;;;;;10259961;28;20625;-71
2023/08/16 01:03:27;;;;;;;6.72;5.93;;;;;;;;;;10265971;28;20110;-70
2023/08/16 01:08:23;;;;;;;9.48;6.63;;;;;;;;;;10252502;23;20108;-71
2023/08/16 01:13:28;;;;;;;7.95;5.78;;;;;;;;;;10203915;28;20049;-71
2023/08/16 01:18:25;;;;;;;10.52;7.20;;;;;;;;;;10230017;28;20522;-72
2023/08/16 01:23:36;;;;;;;9.07;7.00;;;;;;;;;;10257393;28;20060;-70
2023/08/16 01:33:37;;;;;;;7.65;5.88;;;;;;;;;;8019594;26;20123;-69
2023/08/16 01:38:33;;;;;;;6.88;6.18;;;;;;;;;;10271511;28;20083;-69
2023/08/16 01:43:30;;;;;;;7.30;6.60;;;;;;;;;;10270564;28;20049;-69
2023/08/16 01:48:28;;;;;;;7.35;6.53;;;;;;;;;;10266082;23;20085;-69
2023/08/16 01:53:24;;;;;;;7.70;6.65;;;;;;;;;;10227228;28;20116;-69
2023/08/16 01:58:20;;;;;;;10.35;6.47;;;;;;;;;;10212978;28;20529;-68
2023/08/16 02:03:17;;;;;;;10.00;6.30;;;;;;;;;;10219329;28;20077;-69
2023/08/16 02:08:55;;;;;;;13.73;7.38;;;;;;;;;;10253993;23;20053;-69
2023/08/16 02:13:45;;;;;;;9.32;6.53;;;;;;;;;;10208515;28;20061;-69
2023/08/16 02:18:41;;;;;;;7.50;6.65;;;;;;;;;;10304548;23;20102;-69
2023/08/16 02:23:37;;;;;;;15.10;7.53;;;;;;;;;;10300000;28;20080;-69
2023/08/16 02:28:34;;;;;;;8.57;7.72;;;;;;;;;;10291245;28;20068;-69
2023/08/16 02:33:30;;;;;;;11.82;7.95;;;;;;;;;;10286020;28;20103;-69
2023/08/16 02:38:28;;;;;;;10.88;8.05;;;;;;;;;;10299915;28;20443;-69
2023/08/16 02:43:24;;;;;;;11.95;8.02;;;;;;;;;;10303517;28;20679;-69
2023/08/16 02:48:38;;;;;;;9.18;7.28;;;;;;;;;;10327062;23;20535;-69
2023/08/16 02:53:47;;;;;;;11.02;9.40;;;;;;;;;;10249902;28;20064;-69
2023/08/16 02:58:43;;;;;;;10.88;7.88;;;;;;;;;;10258531;28;20041;-69
2023/08/16 03:03:40;;;;;;;12.73;8.82;;;;;;;;;;10257445;28;20080;-69
2023/08/16 03:08:37;;;;;;;10.85;8.75;;;;;;;;;;10264608;28;20052;-69
2023/08/16 03:13:33;;;;;;;9.70;8.85;;;;;;;;;;10257386;28;20048;-69
2023/08/16 03:18:29;;;;;;;10.50;8.35;;;;;;;;;;10256215;28;20507;-69
2023/08/16 03:23:26;;;;;;;10.25;9.15;;;;;;;;;;10260453;28;20053;-69
2023/08/16 03:28:22;;;;;;;12.73;9.52;;;;;;;;;;10258535;28;20095;-69
2023/08/16 03:33:18;;;;;;;13.25;10.32;;;;;;;;;;10272538;28;20576;-72
2023/08/16 03:38:15;;;;;;;11.50;9.40;;;;;;;;;;10260539;28;20053;-72
2023/08/16 03:43:11;;;;;;;13.20;8.90;;;;;;;;;;10263255;28;20049;-71
2023/08/16 03:48:08;;;;;;;11.05;9.68;;;;;;;;;;10247909;28;20091;-72
2023/08/16 03:53:08;;;;;;;12.50;10.02;;;;;;;;;;10251989;28;20072;-71
2023/08/16 03:58:04;;;;;;;11.68;10.57;;;;;;;;;;10252397;28;20057;-72
2023/08/16 04:03:01;;;;;;;15.82;10.63;;;;;;;;;;10255327;28;20045;-72
2023/08/16 04:07:57;;;;;;;12.98;9.45;;;;;;;;;;10245579;28;20422;-72
2023/08/16 04:12:54;;;;;;;11.93;10.73;;;;;;;;;;10245246;28;20061;-72
2023/08/16 04:22:55;;;;;;;14.02;11.65;;;;;;;;;;10318258;23;20077;-72
2023/08/16 04:32:57;;;;;;;16.58;14.80;;;;;;;;;;10219466;28;20084;-73
2023/08/16 04:37:53;;;;;;;14.38;13.02;;;;;;;;;;10221180;28;20072;-73
2023/08/16 04:42:49;;;;;;;16.02;13.13;;;;;;;;;;10202901;28;20096;-73
2023/08/16 04:47:46;;;;;;;16.45;13.57;;;;;;;;;;10205769;28;20077;-73
2023/08/16 04:52:42;;;;;;;18.77;15.10;;;;;;;;;;10215547;28;20526;-74
2023/08/16 04:57:38;;;;;;;20.08;16.05;;;;;;;;;;10219898;28;20100;-73
2023/08/16 05:02:35;;;;;;;16.23;14.40;;;;;;;;;;10213177;28;20115;-74
2023/08/16 05:12:49;;;;;;;15.95;14.25;;;;;;;;;;10327666;23;20072;-74
2023/08/16 05:24:52;;;;;;;;;;;;;;;;;;;;;
2023/08/16 05:42:33;;;;;;;;;;;;;;;;;;;;;
2023/08/16 07:29:16;;;;;;;;;;;;;;;;;;;;;
2023/08/16 07:35:03;;;;;;;10.75;7.75;;;;;;;;;;10047713;28;20067;-74
2023/08/16 09:00:32;;;;;;;7.53;5.75;;;;;;;;;;10399425;22;1165857;-74
2023/08/16 09:05:28;;;;;;;10.43;6.35;;;;;;;;;;10204121;28;20537;-75
2023/08/16 09:45:01;;;;;;;;;;;;;;;;;;;;;
2023/08/16 09:50:29;;;;;;;6.90;6.22;;;;;;;;;;10446234;22;20631;-74
2023/08/16 09:56:36;;;;;;;7.65;6.85;;;;;;;;;;10082155;28;20489;-73
2023/08/16 10:34:59;;;;;;;7.63;6.82;;;;;;;;;;10556059;23;20535;-73
2023/08/16 10:39:55;;;;;;;8.15;7.35;;;;;;;;;;10252738;28;20046;-74
2023/08/16 10:44:55;;;;;;;7.65;6.88;;;;;;;;;;10256970;28;20166;-74
2023/08/16 10:56:19;;;;;;;6.95;6.35;;;;;;;;;;9858222;29;20060;-73
2023/08/16 11:13:51;;;;;;;7.53;6.70;;;;;;;;;;9947041;28;20139;-73
2023/08/16 11:18:48;;;;;;;7.10;6.60;;;;;;;;;;10289612;23;20520;-74
2023/08/16 11:23:45;;;;;;;9.90;8.48;;;;;;;;;;10253157;28;20042;-73
2023/08/16 12:14:05;;;;;;;8.50;7.70;;;;;;;;;;10089420;28;20134;-74
2023/08/16 12:47:23;;;;;;;;;;;;;;;;;;10140234;22;20368;-73
2023/08/16 12:52:20;;;;;;;7.55;5.90;;;;;;;;;;10193405;28;19921;-73
2023/08/16 13:02:28;;;;;;;8.65;5.80;;;;;;;;;;10501988;23;20491;-75
2023/08/16 13:14:11;;;;;;;;;;;;;;;;;;;;;
2023/08/16 13:42:18;;;;;;;8.90;6.70;;;;;;;;;;10688821;23;20484;-73
2023/08/16 14:03:16;;;;;;;6.15;5.55;;;;;;;;;;10338926;23;20463;-73
2023/08/16 14:18:37;;;;;;;7.07;6.35;;;;;;;;;;10289785;23;20045;-73
2023/08/16 14:23:33;;;;;;;10.40;6.90;;;;;;;;;;10217995;28;20136;-75
2023/08/16 14:55:17;;;;;;;8.25;6.47;;;;;;;;;;10527728;23;20065;-72
2023/08/16 15:05:25;;;;;;;8.40;6.50;;;;;;;;;;6265084;26;20393;-73
2023/08/16 15:16:07;;;;;;;6.63;5.72;;;;;;;;;;10699486;23;20584;-72
2023/08/16 15:21:05;;;;;;;6.90;5.93;;;;;;;;;;10578109;23;20144;-72
2023/08/16 15:26:02;;;;;;;9.48;8.40;;;;;;;;;;10224209;28;20058;-72
2023/08/16 15:58:55;;;;;;;7.75;6.03;;;;;;;;;;10838642;22;20124;-74
2023/08/16 16:04:07;;;;;;;8.60;6.03;;;;;;;;;;10137061;28;20046;-74
2023/08/16 16:38:57;;;;;;;;;;;;;;;;;;;;;
2023/08/16 16:45:00;;;;;;;;;;;;;;;;;;;;;
2023/08/16 16:56:21;;;;;;;;;;;;;;;;;;;;;
2023/08/16 17:20:20;;;;;;;6.20;5.63;;;;;;;;;;10423774;22;20045;-75
2023/08/16 17:26:11;;;;;;;;;;;;;;;;;;;;;
2023/08/16 17:43:02;;;;;;;;;;;;;;;;;;;;;
2023/08/16 17:48:58;;;;;;;7.53;5.85;;;;;;;;;;10194804;28;20033;-74
2023/08/16 18:12:23;;;;;;;;;;;;;;;;;;;;;
2023/08/16 18:17:56;;;;;;;7.85;5.82;;;;;;;;;;10035822;28;20040;-73
2023/08/16 18:22:56;;;;;;;7.65;6.70;;;;;;;;;;10073505;28;20058;-73
2023/08/16 18:27:52;;;;;;;7.55;6.78;;;;;;;;;;10091343;28;20058;-73
2023/08/16 18:32:51;;;;;;;6.53;5.80;;;;;;;;;;10086764;28;20406;-74
2023/08/16 18:37:48;;;;;;;6.80;6.05;;;;;;;;;;10073390;28;20073;-74
2023/08/16 18:42:45;;;;;;;7.10;6.40;;;;;;;;;;10096262;28;20122;-74
2023/08/16 19:16:56;;;;;;;8.10;6.43;;;;;;;;;;9987653;29;20060;-73
2023/08/16 19:39:48;;;;;;;;;;;;;;;;;;10072697;28;20046;-73
2023/08/16 19:57:03;;;;;;;7.78;5.90;;;;;;;;;;10636002;23;20527;-73
2023/08/16 20:18:46;;;;;;;7.28;6.57;;;;;;;;;;10205413;23;20046;-73
2023/08/16 20:23:43;;;;;;;8.20;5.88;;;;;;;;;;10225827;28;20045;-69
2023/08/16 20:28:39;;;;;;;6.40;5.78;;;;;;;;;;10242353;28;20068;-69
2023/08/16 20:33:35;;;;;;;6.50;5.55;;;;;;;;;;10265683;28;20060;-69
2023/08/16 20:38:32;;;;;;;8.15;5.45;;;;;;;;;;10267274;28;20041;-70
2023/08/16 20:43:29;;;;;;;6.20;5.45;;;;;;;;;;10269613;28;20056;-69
2023/08/16 20:48:25;;;;;;;6.00;5.45;;;;;;;;;;10261564;28;20126;-70
2023/08/16 20:53:22;;;;;;;6.78;5.65;;;;;;;;;;10269160;28;20446;-71
2023/08/16 20:58:18;;;;;;;6.07;5.35;;;;;;;;;;10271838;28;20045;-70
2023/08/16 21:03:15;;;;;;;7.03;5.50;;;;;;;;;;10252873;28;20054;-70
2023/08/16 21:08:11;;;;;;;6.55;5.47;;;;;;;;;;10265813;28;20100;-70
2023/08/16 21:13:07;;;;;;;8.60;6.00;;;;;;;;;;10263099;28;20085;-70
2023/08/16 21:18:04;;;;;;;6.90;5.80;;;;;;;;;;10265902;28;20620;-69
2023/08/16 21:23:01;;;;;;;6.97;5.38;;;;;;;;;;10267809;28;20049;-69
2023/08/16 21:28:27;;;;;;;5.93;5.40;;;;;;;;;;10279247;23;20057;-71
2023/08/16 21:33:40;;;;;;;6.00;5.40;;;;;;;;;;10220082;28;20053;-70
2023/08/16 21:38:37;;;;;;;7.00;5.68;;;;;;;;;;10316178;23;20778;-70
2023/08/16 21:43:33;;;;;;;6.20;5.50;;;;;;;;;;10217303;28;20077;-70
2023/08/16 21:48:29;;;;;;;5.95;5.38;;;;;;;;;;10219921;28;20063;-69
2023/08/16 21:53:26;;;;;;;6.20;5.60;;;;;;;;;;10228194;28;20046;-69
2023/08/16 21:58:23;;;;;;;5.75;5.15;;;;;;;;;;10222123;28;20100;-69
2023/08/16 22:03:19;;;;;;;5.80;5.30;;;;;;;;;;10208613;28;20045;-68
2023/08/16 22:08:16;;;;;;;6.95;5.40;;;;;;;;;;10200159;28;20617;-69
2023/08/16 22:13:12;;;;;;;5.63;4.90;;;;;;;;;;10228106;28;20053;-69
2023/08/16 22:18:09;;;;;;;6.00;5.40;;;;;;;;;;10217870;28;20058;-69
2023/08/16 22:23:05;;;;;;;6.72;5.55;;;;;;;;;;10226345;28;20111;-70
2023/08/16 22:28:01;;;;;;;6.18;5.43;;;;;;;;;;10230028;28;20115;-70
2023/08/16 22:32:58;;;;;;;8.90;5.50;;;;;;;;;;10227499;28;20084;-70
2023/08/16 22:37:56;;;;;;;6.18;5.50;;;;;;;;;;10230214;28;20057;-69
2023/08/16 22:42:52;;;;;;;8.60;6.00;;;;;;;;;;10223976;28;20048;-68
2023/08/16 22:47:48;;;;;;;6.90;5.78;;;;;;;;;;10214586;28;20582;-68
2023/08/16 22:52:45;;;;;;;7.18;5.72;;;;;;;;;;10220610;28;20045;-68
2023/08/16 22:57:42;;;;;;;6.97;5.60;;;;;;;;;;10280849;23;20478;-69
2023/08/16 23:02:39;;;;;;;7.40;5.38;;;;;;;;;;10247572;28;20068;-69
2023/08/16 23:07:35;;;;;;;8.80;5.60;;;;;;;;;;10232785;28;20080;-68
2023/08/16 23:12:31;;;;;;;7.38;5.45;;;;;;;;;;10198221;28;20107;-70
2023/08/16 23:17:28;;;;;;;6.13;5.50;;;;;;;;;;10202350;28;20096;-70
2023/08/16 23:22:24;;;;;;;9.32;5.38;;;;;;;;;;10205774;28;20129;-69
2023/08/16 23:27:21;;;;;;;6.00;5.43;;;;;;;;;;10196070;28;20056;-70
2023/08/16 23:32:17;;;;;;;6.75;5.43;;;;;;;;;;10201963;28;20093;-69
2023/08/16 23:37:13;;;;;;;6.95;5.30;;;;;;;;;;10191180;28;20450;-69
2023/08/16 23:42:10;;;;;;;6.05;5.20;;;;;;;;;;10198369;28;20081;-69
2023/08/16 23:47:06;;;;;;;8.07;5.25;;;;;;;;;;10193509;28;20116;-70
2023/08/16 23:52:03;;;;;;;7.55;5.10;;;;;;;;;;10193894;28;20046;-70
2023/08/16 23:56:59;;;;;;;6.43;4.93;;;;;;;;;;10198679;28;20116;-69
